sensor_id;sensor_type;location;lat;lon;timestamp;pressure;altitude;pressure_sealevel;temperature;humidity
58662;BME280;44432;49.786;22.760;2024-01-30T00:00:44;101453.37;;;-2.79;89.18
58662;BME280;44432;49.786;22.760;2024-01-30T00:03:34;101455.04;;;-2.81;88.94
58662;BME280;44432;49.786;22.760;2024-01-30T00:06:06;101453.10;;;-2.84;88.98
58662;BME280;44432;49.786;22.760;2024-01-30T00:08:37;101450.42;;;-2.89;89.00
58662;BME280;44432;49.786;22.760;2024-01-30T00:11:08;101452.71;;;-2.94;88.62
58662;BME280;44432;49.786;22.760;2024-01-30T00:13:39;101454.88;;;-3.00;88.81
58662;BME280;44432;49.786;22.760;2024-01-30T00:16:16;101446.14;;;-3.04;88.88
58662;BME280;44432;49.786;22.760;2024-01-30T00:18:50;101443.92;;;-3.08;88.93
58662;BME280;44432;49.786;22.760;2024-01-30T00:21:21;101442.40;;;-3.09;89.25
58662;BME280;44432;49.786;22.760;2024-01-30T00:23:52;101452.23;;;-3.09;89.39
58662;BME280;44432;49.786;22.760;2024-01-30T00:26:23;101444.27;;;-3.12;89.31
58662;BME280;44432;49.786;22.760;2024-01-30T00:28:54;101446.52;;;-3.12;89.47
58662;BME280;44432;49.786;22.760;2024-01-30T00:31:25;101441.08;;;-3.13;89.27
58662;BME280;44432;49.786;22.760;2024-01-30T00:33:56;101437.77;;;-3.16;89.30
58662;BME280;44432;49.786;22.760;2024-01-30T00:36:27;101437.30;;;-3.17;89.40
58662;BME280;44432;49.786;22.760;2024-01-30T00:38:59;101426.19;;;-3.19;89.63
58662;BME280;44432;49.786;22.760;2024-01-30T00:41:30;101424.23;;;-3.18;89.56
58662;BME280;44432;49.786;22.760;2024-01-30T00:44:01;101419.80;;;-3.18;89.73
58662;BME280;44432;49.786;22.760;2024-01-30T00:46:31;101421.03;;;-3.19;89.53
58662;BME280;44432;49.786;22.760;2024-01-30T00:49:02;101412.55;;;-3.22;89.28
58662;BME280;44432;49.786;22.760;2024-01-30T00:51:33;101418.45;;;-3.26;89.16
58662;BME280;44432;49.786;22.760;2024-01-30T00:54:04;101418.62;;;-3.30;89.37
58662;BME280;44432;49.786;22.760;2024-01-30T00:56:35;101419.52;;;-3.31;89.45
58662;BME280;44432;49.786;22.760;2024-01-30T00:59:06;101419.15;;;-3.34;89.48
58662;BME280;44432;49.786;22.760;2024-01-30T01:01:37;101417.98;;;-3.38;89.40
58662;BME280;44432;49.786;22.760;2024-01-30T01:04:08;101419.19;;;-3.42;89.42
58662;BME280;44432;49.786;22.760;2024-01-30T01:06:38;101416.27;;;-3.46;89.22
58662;BME280;44432;49.786;22.760;2024-01-30T01:09:12;101412.80;;;-3.49;89.41
58662;BME280;44432;49.786;22.760;2024-01-30T01:11:42;101412.72;;;-3.51;89.47
58662;BME280;44432;49.786;22.760;2024-01-30T01:14:13;101407.16;;;-3.54;89.35
58662;BME280;44432;49.786;22.760;2024-01-30T01:16:44;101405.16;;;-3.55;89.45
58662;BME280;44432;49.786;22.760;2024-01-30T01:19:15;101400.65;;;-3.58;89.45
58662;BME280;44432;49.786;22.760;2024-01-30T01:21:45;101397.23;;;-3.59;89.60
58662;BME280;44432;49.786;22.760;2024-01-30T01:24:16;101393.70;;;-3.60;89.48
58662;BME280;44432;49.786;22.760;2024-01-30T01:26:47;101396.55;;;-3.59;89.57
58662;BME280;44432;49.786;22.760;2024-01-30T01:29:17;101399.37;;;-3.60;89.72
58662;BME280;44432;49.786;22.760;2024-01-30T01:31:50;101397.42;;;-3.59;89.83
58662;BME280;44432;49.786;22.760;2024-01-30T01:34:21;101393.17;;;-3.60;89.57
58662;BME280;44432;49.786;22.760;2024-01-30T01:36:52;101389.42;;;-3.61;89.61
58662;BME280;44432;49.786;22.760;2024-01-30T01:39:25;101387.30;;;-3.64;89.44
58662;BME280;44432;49.786;22.760;2024-01-30T01:41:55;101383.89;;;-3.68;89.28
58662;BME280;44432;49.786;22.760;2024-01-30T01:44:26;101383.90;;;-3.72;89.15
58662;BME280;44432;49.786;22.760;2024-01-30T01:46:58;101382.83;;;-3.75;89.30
58662;BME280;44432;49.786;22.760;2024-01-30T01:49:29;101379.94;;;-3.75;89.54
58662;BME280;44432;49.786;22.760;2024-01-30T01:52:00;101380.16;;;-3.77;89.63
58662;BME280;44432;49.786;22.760;2024-01-30T01:54:31;101374.05;;;-3.78;89.53
58662;BME280;44432;49.786;22.760;2024-01-30T01:57:03;101367.52;;;-3.82;89.57
58662;BME280;44432;49.786;22.760;2024-01-30T01:59:34;101371.95;;;-3.82;89.61
58662;BME280;44432;49.786;22.760;2024-01-30T02:02:06;101369.45;;;-3.83;89.57
58662;BME280;44432;49.786;22.760;2024-01-30T02:04:38;101367.28;;;-3.85;89.47
58662;BME280;44432;49.786;22.760;2024-01-30T02:07:09;101367.36;;;-3.90;89.27
58662;BME280;44432;49.786;22.760;2024-01-30T02:09:40;101368.58;;;-3.95;89.38
58662;BME280;44432;49.786;22.760;2024-01-30T02:12:10;101368.47;;;-4.00;89.42
58662;BME280;44432;49.786;22.760;2024-01-30T02:14:47;101371.02;;;-3.99;89.70
58662;BME280;44432;49.786;22.760;2024-01-30T02:17:18;101370.55;;;-4.00;89.86
58662;BME280;44432;49.786;22.760;2024-01-30T02:19:49;101369.57;;;-4.01;89.77
58662;BME280;44432;49.786;22.760;2024-01-30T02:22:20;101368.11;;;-4.07;89.43
58662;BME280;44432;49.786;22.760;2024-01-30T02:24:51;101370.16;;;-4.11;89.43
58662;BME280;44432;49.786;22.760;2024-01-30T02:27:22;101368.73;;;-4.13;89.59
58662;BME280;44432;49.786;22.760;2024-01-30T02:29:53;101367.44;;;-4.15;89.52
58662;BME280;44432;49.786;22.760;2024-01-30T02:32:24;101368.77;;;-4.17;89.61
58662;BME280;44432;49.786;22.760;2024-01-30T02:34:54;101370.88;;;-4.18;89.73
58662;BME280;44432;49.786;22.760;2024-01-30T02:37:25;101367.38;;;-4.21;89.74
58662;BME280;44432;49.786;22.760;2024-01-30T02:39:56;101370.41;;;-4.23;89.50
58662;BME280;44432;49.786;22.760;2024-01-30T02:42:26;101370.60;;;-4.24;89.78
58662;BME280;44432;49.786;22.760;2024-01-30T02:44:57;101373.39;;;-4.24;89.64
58662;BME280;44432;49.786;22.760;2024-01-30T02:47:28;101371.17;;;-4.25;89.85
58662;BME280;44432;49.786;22.760;2024-01-30T02:49:58;101369.45;;;-4.25;89.91
58662;BME280;44432;49.786;22.760;2024-01-30T02:52:29;101366.55;;;-4.25;90.09
58662;BME280;44432;49.786;22.760;2024-01-30T02:55:00;101367.02;;;-4.28;89.69
58662;BME280;44432;49.786;22.760;2024-01-30T02:57:31;101368.13;;;-4.30;89.66
58662;BME280;44432;49.786;22.760;2024-01-30T03:00:02;101372.47;;;-4.32;89.69
58662;BME280;44432;49.786;22.760;2024-01-30T03:02:35;101372.84;;;-4.32;89.85
58662;BME280;44432;49.786;22.760;2024-01-30T03:05:07;101370.98;;;-4.33;89.87
58662;BME280;44432;49.786;22.760;2024-01-30T03:07:38;101365.27;;;-4.32;90.00
58662;BME280;44432;49.786;22.760;2024-01-30T03:10:09;101364.77;;;-4.32;90.04
58662;BME280;44432;49.786;22.760;2024-01-30T03:12:40;101364.39;;;-4.31;90.05
58662;BME280;44432;49.786;22.760;2024-01-30T03:15:11;101361.73;;;-4.34;89.97
58662;BME280;44432;49.786;22.760;2024-01-30T03:17:42;101358.16;;;-4.34;89.85
58662;BME280;44432;49.786;22.760;2024-01-30T03:20:14;101362.69;;;-4.36;89.80
58662;BME280;44432;49.786;22.760;2024-01-30T03:22:45;101361.93;;;-4.38;89.70
58662;BME280;44432;49.786;22.760;2024-01-30T03:25:15;101357.81;;;-4.42;89.51
58662;BME280;44432;49.786;22.760;2024-01-30T03:27:46;101357.37;;;-4.44;89.60
58662;BME280;44432;49.786;22.760;2024-01-30T03:30:17;101361.70;;;-4.44;89.68
58662;BME280;44432;49.786;22.760;2024-01-30T03:32:48;101353.58;;;-4.44;89.83
58662;BME280;44432;49.786;22.760;2024-01-30T03:35:20;101347.94;;;-4.44;89.86
58662;BME280;44432;49.786;22.760;2024-01-30T03:37:50;101353.66;;;-4.45;89.57
58662;BME280;44432;49.786;22.760;2024-01-30T03:40:21;101353.55;;;-4.47;89.72
58662;BME280;44432;49.786;22.760;2024-01-30T03:42:52;101354.33;;;-4.48;89.71
58662;BME280;44432;49.786;22.760;2024-01-30T03:45:23;101354.70;;;-4.50;89.68
58662;BME280;44432;49.786;22.760;2024-01-30T03:47:53;101352.16;;;-4.50;89.77
58662;BME280;44432;49.786;22.760;2024-01-30T03:50:24;101348.46;;;-4.52;89.78
58662;BME280;44432;49.786;22.760;2024-01-30T03:52:55;101351.77;;;-4.49;89.84
58662;BME280;44432;49.786;22.760;2024-01-30T03:55:26;101353.92;;;-4.47;90.11
58662;BME280;44432;49.786;22.760;2024-01-30T03:57:56;101355.67;;;-4.48;89.81
58662;BME280;44432;49.786;22.760;2024-01-30T04:00:27;101357.98;;;-4.50;89.71
58662;BME280;44432;49.786;22.760;2024-01-30T04:02:58;101361.77;;;-4.50;89.87
58662;BME280;44432;49.786;22.760;2024-01-30T04:05:29;101354.04;;;-4.50;89.93
58662;BME280;44432;49.786;22.760;2024-01-30T04:08:00;101356.63;;;-4.50;89.75
58662;BME280;44432;49.786;22.760;2024-01-30T04:10:31;101354.73;;;-4.51;89.80
58662;BME280;44432;49.786;22.760;2024-01-30T04:13:02;101357.66;;;-4.51;89.92
58662;BME280;44432;49.786;22.760;2024-01-30T04:15:33;101358.73;;;-4.52;89.74
58662;BME280;44432;49.786;22.760;2024-01-30T04:18:04;101363.41;;;-4.52;89.81
58662;BME280;44432;49.786;22.760;2024-01-30T04:20:35;101367.17;;;-4.56;89.58
58662;BME280;44432;49.786;22.760;2024-01-30T04:23:06;101367.99;;;-4.59;89.42
58662;BME280;44432;49.786;22.760;2024-01-30T04:25:36;101364.11;;;-4.61;89.49
58662;BME280;44432;49.786;22.760;2024-01-30T04:28:07;101361.64;;;-4.59;89.81
58662;BME280;44432;49.786;22.760;2024-01-30T04:30:38;101356.92;;;-4.57;90.01
58662;BME280;44432;49.786;22.760;2024-01-30T04:33:09;101355.48;;;-4.55;90.04
58662;BME280;44432;49.786;22.760;2024-01-30T04:35:40;101353.16;;;-4.54;90.11
58662;BME280;44432;49.786;22.760;2024-01-30T04:38:11;101351.41;;;-4.53;89.94
58662;BME280;44432;49.786;22.760;2024-01-30T04:40:43;101347.79;;;-4.53;89.83
58662;BME280;44432;49.786;22.760;2024-01-30T04:43:14;101351.19;;;-4.52;89.90
58662;BME280;44432;49.786;22.760;2024-01-30T04:45:45;101350.77;;;-4.50;89.93
58662;BME280;44432;49.786;22.760;2024-01-30T04:48:15;101350.04;;;-4.49;89.95
58662;BME280;44432;49.786;22.760;2024-01-30T04:50:46;101345.73;;;-4.49;89.93
58662;BME280;44432;49.786;22.760;2024-01-30T04:53:17;101349.38;;;-4.50;89.83
58662;BME280;44432;49.786;22.760;2024-01-30T04:55:48;101350.44;;;-4.50;89.66
58662;BME280;44432;49.786;22.760;2024-01-30T04:58:19;101347.86;;;-4.50;89.88
58662;BME280;44432;49.786;22.760;2024-01-30T05:00:51;101344.27;;;-4.51;89.85
58662;BME280;44432;49.786;22.760;2024-01-30T05:03:22;101345.98;;;-4.51;89.89
58662;BME280;44432;49.786;22.760;2024-01-30T05:05:53;101341.39;;;-4.52;89.76
58662;BME280;44432;49.786;22.760;2024-01-30T05:08:24;101342.11;;;-4.52;89.74
58662;BME280;44432;49.786;22.760;2024-01-30T05:10:55;101346.96;;;-4.53;89.61
58662;BME280;44432;49.786;22.760;2024-01-30T05:13:25;101350.27;;;-4.54;89.76
58662;BME280;44432;49.786;22.760;2024-01-30T05:15:56;101349.58;;;-4.54;89.84
58662;BME280;44432;49.786;22.760;2024-01-30T05:18:27;101347.53;;;-4.54;89.80
58662;BME280;44432;49.786;22.760;2024-01-30T05:20:58;101350.60;;;-4.54;89.86
58662;BME280;44432;49.786;22.760;2024-01-30T05:23:29;101351.45;;;-4.54;89.88
58662;BME280;44432;49.786;22.760;2024-01-30T05:26:00;101353.88;;;-4.54;89.71
58662;BME280;44432;49.786;22.760;2024-01-30T05:28:31;101351.30;;;-4.54;89.95
58662;BME280;44432;49.786;22.760;2024-01-30T05:31:02;101350.45;;;-4.54;89.83
58662;BME280;44432;49.786;22.760;2024-01-30T05:33:33;101352.92;;;-4.56;89.72
58662;BME280;44432;49.786;22.760;2024-01-30T05:36:05;101349.55;;;-4.58;89.65
58662;BME280;44432;49.786;22.760;2024-01-30T05:38:35;101350.06;;;-4.57;89.85
58662;BME280;44432;49.786;22.760;2024-01-30T05:41:07;101354.35;;;-4.57;89.90
58662;BME280;44432;49.786;22.760;2024-01-30T05:43:38;101353.95;;;-4.56;89.94
58662;BME280;44432;49.786;22.760;2024-01-30T05:46:09;101355.98;;;-4.55;90.05
58662;BME280;44432;49.786;22.760;2024-01-30T05:48:39;101353.39;;;-4.55;89.89
58662;BME280;44432;49.786;22.760;2024-01-30T05:51:10;101355.48;;;-4.55;89.85
58662;BME280;44432;49.786;22.760;2024-01-30T05:53:41;101353.36;;;-4.54;90.08
58662;BME280;44432;49.786;22.760;2024-01-30T05:56:12;101357.80;;;-4.54;89.92
58662;BME280;44432;49.786;22.760;2024-01-30T05:58:43;101363.63;;;-4.53;89.98
58662;BME280;44432;49.786;22.760;2024-01-30T06:01:14;101364.25;;;-4.52;90.01
58662;BME280;44432;49.786;22.760;2024-01-30T06:03:44;101366.79;;;-4.51;90.02
58662;BME280;44432;49.786;22.760;2024-01-30T06:06:15;101364.67;;;-4.50;90.03
58662;BME280;44432;49.786;22.760;2024-01-30T06:08:46;101363.44;;;-4.49;89.93
58662;BME280;44432;49.786;22.760;2024-01-30T06:11:17;101359.55;;;-4.51;89.82
58662;BME280;44432;49.786;22.760;2024-01-30T06:13:48;101362.66;;;-4.47;89.93
58662;BME280;44432;49.786;22.760;2024-01-30T06:16:19;101365.09;;;-4.43;89.95
58662;BME280;44432;49.786;22.760;2024-01-30T06:18:50;101356.17;;;-4.48;90.08
58662;BME280;44432;49.786;22.760;2024-01-30T06:21:21;101366.14;;;-4.40;89.93
58662;BME280;44432;49.786;22.760;2024-01-30T06:23:52;101365.92;;;-4.39;89.77
58662;BME280;44432;49.786;22.760;2024-01-30T06:26:23;101363.34;;;-4.39;89.55
58662;BME280;44432;49.786;22.760;2024-01-30T06:28:54;101356.53;;;-4.44;89.49
58662;BME280;44432;49.786;22.760;2024-01-30T06:31:25;101368.92;;;-4.41;89.42
58662;BME280;44432;49.786;22.760;2024-01-30T06:33:56;101367.31;;;-4.39;89.57
58662;BME280;44432;49.786;22.760;2024-01-30T06:36:26;101369.41;;;-4.36;89.79
58662;BME280;44432;49.786;22.760;2024-01-30T06:38:57;101374.14;;;-4.30;89.90
58662;BME280;44432;49.786;22.760;2024-01-30T06:41:28;101374.90;;;-4.24;90.10
58662;BME280;44432;49.786;22.760;2024-01-30T06:44:01;101372.16;;;-4.20;89.97
58662;BME280;44432;49.786;22.760;2024-01-30T06:46:32;101373.51;;;-4.16;89.87
58662;BME280;44432;49.786;22.760;2024-01-30T06:49:03;101369.69;;;-4.11;89.99
58662;BME280;44432;49.786;22.760;2024-01-30T06:51:34;101367.65;;;-4.04;90.17
58662;BME280;44432;49.786;22.760;2024-01-30T06:54:06;101368.34;;;-3.97;90.38
58662;BME280;44432;49.786;22.760;2024-01-30T06:56:37;101370.78;;;-3.90;90.35
58662;BME280;44432;49.786;22.760;2024-01-30T06:59:08;101371.12;;;-3.82;90.45
58662;BME280;44432;49.786;22.760;2024-01-30T07:01:39;101372.98;;;-3.74;90.41
58662;BME280;44432;49.786;22.760;2024-01-30T07:04:10;101375.04;;;-3.67;90.57
58662;BME280;44432;49.786;22.760;2024-01-30T07:06:41;101375.23;;;-3.59;90.40
58662;BME280;44432;49.786;22.760;2024-01-30T07:09:12;101376.11;;;-3.52;90.44
58662;BME280;44432;49.786;22.760;2024-01-30T07:11:43;101368.55;;;-3.46;90.39
58662;BME280;44432;49.786;22.760;2024-01-30T07:14:13;101367.02;;;-3.39;90.24
58662;BME280;44432;49.786;22.760;2024-01-30T07:16:45;101362.77;;;-3.33;90.19
58662;BME280;44432;49.786;22.760;2024-01-30T07:19:16;101363.86;;;-3.26;90.15
58662;BME280;44432;49.786;22.760;2024-01-30T07:21:48;101363.97;;;-3.21;90.11
58662;BME280;44432;49.786;22.760;2024-01-30T07:24:21;101363.82;;;-3.15;90.20
58662;BME280;44432;49.786;22.760;2024-01-30T07:26:52;101368.56;;;-3.07;90.24
58662;BME280;44432;49.786;22.760;2024-01-30T07:29:23;101368.65;;;-2.98;90.38
58662;BME280;44432;49.786;22.760;2024-01-30T07:31:54;101366.00;;;-2.89;90.48
58662;BME280;44432;49.786;22.760;2024-01-30T07:34:25;101366.42;;;-2.81;90.44
58662;BME280;44432;49.786;22.760;2024-01-30T07:36:57;101368.88;;;-2.71;90.53
58662;BME280;44432;49.786;22.760;2024-01-30T07:39:28;101370.56;;;-2.63;90.42
58662;BME280;44432;49.786;22.760;2024-01-30T07:41:59;101373.38;;;-2.54;90.46
58662;BME280;44432;49.786;22.760;2024-01-30T07:44:29;101372.71;;;-2.45;90.61
58662;BME280;44432;49.786;22.760;2024-01-30T07:47:00;101372.16;;;-2.34;90.84
58662;BME280;44432;49.786;22.760;2024-01-30T07:49:32;101369.86;;;-2.23;90.73
58662;BME280;44432;49.786;22.760;2024-01-30T07:52:03;101363.08;;;-2.15;90.80
58662;BME280;44432;49.786;22.760;2024-01-30T07:54:34;101363.24;;;-2.03;90.76
58662;BME280;44432;49.786;22.760;2024-01-30T07:57:08;101361.99;;;-1.92;90.65
58662;BME280;44432;49.786;22.760;2024-01-30T07:59:39;101363.00;;;-1.82;90.60
58662;BME280;44432;49.786;22.760;2024-01-30T08:02:10;101361.23;;;-1.72;90.77
58662;BME280;44432;49.786;22.760;2024-01-30T08:04:41;101362.11;;;-1.59;90.82
58662;BME280;44432;49.786;22.760;2024-01-30T08:07:12;101361.90;;;-1.49;90.68
58662;BME280;44432;49.786;22.760;2024-01-30T08:09:43;101362.52;;;-1.38;90.64
58662;BME280;44432;49.786;22.760;2024-01-30T08:12:14;101359.39;;;-1.29;90.66
58662;BME280;44432;49.786;22.760;2024-01-30T08:14:45;101357.25;;;-1.18;90.56
58662;BME280;44432;49.786;22.760;2024-01-30T08:17:15;101355.83;;;-1.09;90.55
58662;BME280;44432;49.786;22.760;2024-01-30T08:19:46;101358.77;;;-0.97;90.55
58662;BME280;44432;49.786;22.760;2024-01-30T08:22:17;101356.81;;;-0.87;90.52
58662;BME280;44432;49.786;22.760;2024-01-30T08:24:48;101355.60;;;-0.75;90.43
58662;BME280;44432;49.786;22.760;2024-01-30T08:27:19;101352.85;;;-0.64;90.75
58662;BME280;44432;49.786;22.760;2024-01-30T08:29:50;101348.31;;;-0.51;90.56
58662;BME280;44432;49.786;22.760;2024-01-30T08:32:21;101348.92;;;-0.38;90.66
58662;BME280;44432;49.786;22.760;2024-01-30T08:34:51;101347.50;;;-0.26;90.55
58662;BME280;44432;49.786;22.760;2024-01-30T08:37:22;101343.99;;;-0.14;90.51
58662;BME280;44432;49.786;22.760;2024-01-30T08:39:53;101342.52;;;-0.02;90.54
58662;BME280;44432;49.786;22.760;2024-01-30T08:42:24;101341.74;;;0.11;90.46
58662;BME280;44432;49.786;22.760;2024-01-30T08:44:55;101327.57;;;0.21;90.46
58662;BME280;44432;49.786;22.760;2024-01-30T08:47:26;101325.49;;;0.35;90.54
58662;BME280;44432;49.786;22.760;2024-01-30T08:49:57;101325.11;;;0.50;90.61
58662;BME280;44432;49.786;22.760;2024-01-30T08:52:28;101322.17;;;0.62;90.45
58662;BME280;44432;49.786;22.760;2024-01-30T08:54:59;101314.45;;;0.75;90.31
58662;BME280;44432;49.786;22.760;2024-01-30T08:57:30;101313.90;;;0.88;90.23
58662;BME280;44432;49.786;22.760;2024-01-30T09:00:01;101313.38;;;1.02;90.10
58662;BME280;44432;49.786;22.760;2024-01-30T09:02:36;101310.61;;;1.14;89.86
58662;BME280;44432;49.786;22.760;2024-01-30T09:05:07;101310.65;;;1.26;89.44
58662;BME280;44432;49.786;22.760;2024-01-30T09:07:38;101306.02;;;1.39;89.21
58662;BME280;44432;49.786;22.760;2024-01-30T09:10:09;101302.38;;;1.51;88.51
58662;BME280;44432;49.786;22.760;2024-01-30T09:12:40;101299.43;;;1.64;88.39
58662;BME280;44432;49.786;22.760;2024-01-30T09:15:12;101294.30;;;1.75;88.19
58662;BME280;44432;49.786;22.760;2024-01-30T09:17:43;101295.10;;;1.88;87.84
58662;BME280;44432;49.786;22.760;2024-01-30T09:20:14;101294.23;;;2.01;87.83
58662;BME280;44432;49.786;22.760;2024-01-30T09:22:45;101294.61;;;2.15;87.62
58662;BME280;44432;49.786;22.760;2024-01-30T09:25:16;101292.23;;;2.28;87.29
58662;BME280;44432;49.786;22.760;2024-01-30T09:27:48;101291.14;;;2.44;86.89
58662;BME280;44432;49.786;22.760;2024-01-30T09:30:19;101286.38;;;2.59;86.11
58662;BME280;44432;49.786;22.760;2024-01-30T09:32:50;101281.13;;;2.74;85.70
58662;BME280;44432;49.786;22.760;2024-01-30T09:35:21;101279.02;;;2.90;84.19
58662;BME280;44432;49.786;22.760;2024-01-30T09:37:52;101283.58;;;3.08;82.57
58662;BME280;44432;49.786;22.760;2024-01-30T09:40:23;101279.29;;;3.27;81.56
58662;BME280;44432;49.786;22.760;2024-01-30T09:42:55;101271.98;;;3.45;80.39
58662;BME280;44432;49.786;22.760;2024-01-30T09:45:26;101273.20;;;3.64;79.71
58662;BME280;44432;49.786;22.760;2024-01-30T09:48:00;101270.15;;;3.78;78.60
58662;BME280;44432;49.786;22.760;2024-01-30T09:50:32;101265.34;;;3.93;77.73
58662;BME280;44432;49.786;22.760;2024-01-30T09:53:06;101262.00;;;4.06;76.59
58662;BME280;44432;49.786;22.760;2024-01-30T09:55:38;101261.04;;;4.20;75.73
58662;BME280;44432;49.786;22.760;2024-01-30T09:58:11;101255.39;;;4.32;74.90
58662;BME280;44432;49.786;22.760;2024-01-30T10:00:42;101253.05;;;4.44;74.16
58662;BME280;44432;49.786;22.760;2024-01-30T10:03:13;101248.70;;;4.54;73.54
58662;BME280;44432;49.786;22.760;2024-01-30T10:05:52;101245.58;;;4.62;73.27
58662;BME280;44432;49.786;22.760;2024-01-30T10:08:23;101246.34;;;4.72;72.57
58662;BME280;44432;49.786;22.760;2024-01-30T10:10:54;101243.18;;;4.80;71.79
58662;BME280;44432;49.786;22.760;2024-01-30T10:13:25;101240.19;;;4.89;71.30
58662;BME280;44432;49.786;22.760;2024-01-30T10:15:56;101235.21;;;4.97;70.82
58662;BME280;44432;49.786;22.760;2024-01-30T10:18:29;101232.16;;;5.06;70.71
58662;BME280;44432;49.786;22.760;2024-01-30T10:21:00;101223.50;;;5.13;69.86
58662;BME280;44432;49.786;22.760;2024-01-30T10:23:32;101220.36;;;5.21;69.14
58662;BME280;44432;49.786;22.760;2024-01-30T10:26:04;101218.28;;;5.29;68.96
58662;BME280;44432;49.786;22.760;2024-01-30T10:28:35;101217.77;;;5.37;68.42
58662;BME280;44432;49.786;22.760;2024-01-30T10:31:05;101218.63;;;5.45;68.18
58662;BME280;44432;49.786;22.760;2024-01-30T10:33:36;101216.04;;;5.53;68.07
58662;BME280;44432;49.786;22.760;2024-01-30T10:36:08;101214.02;;;5.60;67.06
58662;BME280;44432;49.786;22.760;2024-01-30T10:38:40;101212.37;;;5.67;66.77
58662;BME280;44432;49.786;22.760;2024-01-30T10:41:11;101208.77;;;5.74;66.57
58662;BME280;44432;49.786;22.760;2024-01-30T10:43:50;101203.41;;;5.79;66.64
58662;BME280;44432;49.786;22.760;2024-01-30T10:46:30;101203.42;;;5.85;65.84
58662;BME280;44432;49.786;22.760;2024-01-30T10:49:04;101200.95;;;5.90;65.51
58662;BME280;44432;49.786;22.760;2024-01-30T10:51:36;101197.23;;;5.95;64.18
58662;BME280;44432;49.786;22.760;2024-01-30T10:54:07;101199.15;;;5.99;63.78
58662;BME280;44432;49.786;22.760;2024-01-30T10:56:40;101192.11;;;6.01;63.59
58662;BME280;44432;49.786;22.760;2024-01-30T10:59:13;101193.58;;;6.04;62.40
58662;BME280;44432;49.786;22.760;2024-01-30T11:01:44;101193.14;;;6.07;61.22
58662;BME280;44432;49.786;22.760;2024-01-30T11:04:16;101194.49;;;6.09;61.89
58662;BME280;44432;49.786;22.760;2024-01-30T11:06:47;101192.90;;;6.14;61.44
58662;BME280;44432;49.786;22.760;2024-01-30T11:09:20;101191.83;;;6.18;60.68
58662;BME280;44432;49.786;22.760;2024-01-30T11:11:52;101187.98;;;6.21;60.64
58662;BME280;44432;49.786;22.760;2024-01-30T11:14:30;101188.38;;;6.27;60.69
58662;BME280;44432;49.786;22.760;2024-01-30T11:17:01;101189.02;;;6.31;60.61
58662;BME280;44432;49.786;22.760;2024-01-30T11:19:34;101184.67;;;6.35;59.73
58662;BME280;44432;49.786;22.760;2024-01-30T11:22:07;101182.91;;;6.37;59.17
58662;BME280;44432;49.786;22.760;2024-01-30T11:24:42;101178.27;;;6.38;58.85
58662;BME280;44432;49.786;22.760;2024-01-30T11:27:13;101181.30;;;6.41;59.01
58662;BME280;44432;49.786;22.760;2024-01-30T11:29:43;101178.52;;;6.43;58.03
58662;BME280;44432;49.786;22.760;2024-01-30T11:32:24;101174.95;;;6.44;58.03
58662;BME280;44432;49.786;22.760;2024-01-30T11:34:55;101170.89;;;6.46;58.30
58662;BME280;44432;49.786;22.760;2024-01-30T11:37:27;101162.96;;;6.48;58.17
58662;BME280;44432;49.786;22.760;2024-01-30T11:39:58;101156.91;;;6.51;57.94
58662;BME280;44432;49.786;22.760;2024-01-30T11:42:30;101157.90;;;6.54;57.64
58662;BME280;44432;49.786;22.760;2024-01-30T11:45:02;101157.52;;;6.56;57.30
58662;BME280;44432;49.786;22.760;2024-01-30T11:47:36;101157.57;;;6.58;57.16
58662;BME280;44432;49.786;22.760;2024-01-30T11:50:08;101154.86;;;6.59;57.18
58662;BME280;44432;49.786;22.760;2024-01-30T11:52:40;101147.65;;;6.59;56.61
58662;BME280;44432;49.786;22.760;2024-01-30T11:55:13;101156.02;;;6.62;56.21
58662;BME280;44432;49.786;22.760;2024-01-30T11:57:45;101152.80;;;6.64;55.97
58662;BME280;44432;49.786;22.760;2024-01-30T12:00:20;101150.04;;;6.65;56.61
58662;BME280;44432;49.786;22.760;2024-01-30T12:02:52;101145.23;;;6.64;56.29
58662;BME280;44432;49.786;22.760;2024-01-30T12:05:26;101147.96;;;6.69;55.87
58662;BME280;44432;49.786;22.760;2024-01-30T12:07:58;101142.19;;;6.71;56.06
58662;BME280;44432;49.786;22.760;2024-01-30T12:10:31;101140.92;;;6.75;55.71
58662;BME280;44432;49.786;22.760;2024-01-30T12:13:08;101141.77;;;6.77;55.56
58662;BME280;44432;49.786;22.760;2024-01-30T12:15:42;101135.41;;;6.77;53.90
58662;BME280;44432;49.786;22.760;2024-01-30T12:18:13;101138.63;;;6.79;54.22
58662;BME280;44432;49.786;22.760;2024-01-30T12:20:44;101137.77;;;6.80;54.20
58662;BME280;44432;49.786;22.760;2024-01-30T12:23:15;101134.91;;;6.81;54.19
58662;BME280;44432;49.786;22.760;2024-01-30T12:25:46;101132.96;;;6.79;54.24
58662;BME280;44432;49.786;22.760;2024-01-30T12:28:16;101132.45;;;6.83;54.62
58662;BME280;44432;49.786;22.760;2024-01-30T12:30:47;101131.30;;;6.86;54.82
58662;BME280;44432;49.786;22.760;2024-01-30T12:33:21;101130.02;;;6.88;54.51
58662;BME280;44432;49.786;22.760;2024-01-30T12:35:52;101129.36;;;6.90;54.00
58662;BME280;44432;49.786;22.760;2024-01-30T12:38:23;101124.05;;;6.93;54.67
58662;BME280;44432;49.786;22.760;2024-01-30T12:40:56;101126.84;;;6.95;54.33
58662;BME280;44432;49.786;22.760;2024-01-30T12:43:29;101130.69;;;6.96;54.27
58662;BME280;44432;49.786;22.760;2024-01-30T12:46:01;101128.57;;;6.97;53.68
58662;BME280;44432;49.786;22.760;2024-01-30T12:48:34;101127.92;;;6.98;53.41
58662;BME280;44432;49.786;22.760;2024-01-30T12:51:05;101124.69;;;6.99;53.94
58662;BME280;44432;49.786;22.760;2024-01-30T12:53:36;101122.54;;;6.99;53.46
58662;BME280;44432;49.786;22.760;2024-01-30T12:56:07;101121.04;;;7.00;53.54
58662;BME280;44432;49.786;22.760;2024-01-30T12:58:39;101118.35;;;7.01;53.63
58662;BME280;44432;49.786;22.760;2024-01-30T13:01:11;101119.02;;;7.01;53.45
58662;BME280;44432;49.786;22.760;2024-01-30T13:03:41;101114.48;;;7.01;53.36